Time;durP1;ratioP1;P1;durP2;ratioP2;P2;SDS_P1;SDS_P2;PMS_P1;PMS_P2;Temp;Humidity;BMP_temperature;BMP_pressure;BME280_temperature;BME280_humidity;BME280_pressure;Samples;Min_cycle;Max_cycle;Signal;HPM_P1;HPM_P2
2022/10/26 00:01:32;;;;;;;0.90;0.50;;;13.80;99.90;;;;;;5077001;28;20901;-70
2022/10/26 00:03:59;;;;;;;0.80;0.50;;;13.80;99.90;;;;;;5079149;28;20486;-71
2022/10/26 00:06:27;;;;;;;1.90;0.50;;;13.80;99.90;;;;;;5078085;28;20493;-71
2022/10/26 00:08:56;;;;;;;1.03;0.60;;;13.80;99.90;;;;;;5078728;28;20541;-72
2022/10/26 00:11:23;;;;;;;1.00;0.60;;;13.80;99.90;;;;;;5078582;28;20558;-72
2022/10/26 00:13:51;;;;;;;1.40;0.60;;;13.80;99.90;;;;;;5078638;28;20565;-72
2022/10/26 00:16:21;;;;;;;2.40;0.60;;;13.80;99.90;;;;;;5077582;28;20494;-71
2022/10/26 00:18:48;;;;;;;2.20;0.80;;;13.80;99.90;;;;;;5078933;28;20556;-71
2022/10/26 00:21:16;;;;;;;1.97;0.60;;;13.80;99.90;;;;;;5078893;28;20542;-71
2022/10/26 00:23:43;;;;;;;1.27;0.60;;;13.80;99.90;;;;;;5078399;28;20578;-71
2022/10/26 00:26:10;;;;;;;0.70;0.50;;;13.80;99.90;;;;;;5077330;28;20458;-71
2022/10/26 00:28:38;;;;;;;0.80;0.57;;;13.90;99.90;;;;;;5078327;28;20553;-71
2022/10/26 00:31:11;;;;;;;0.80;0.50;;;13.90;99.90;;;;;;5077149;28;20596;-71
2022/10/26 00:33:38;;;;;;;0.70;0.60;;;13.90;99.90;;;;;;5078009;28;20513;-71
2022/10/26 00:36:05;;;;;;;4.13;0.50;;;13.90;99.90;;;;;;5076982;28;20516;-71
2022/10/26 00:38:32;;;;;;;1.30;0.60;;;13.90;99.90;;;;;;5078776;28;20569;-72
2022/10/26 00:40:58;;;;;;;1.03;0.50;;;13.90;99.90;;;;;;5077631;28;20540;-72
2022/10/26 00:43:39;;;;;;;1.37;0.60;;;14.00;99.90;;;;;;5076461;28;20569;-72
2022/10/26 00:46:11;;;;;;;0.83;0.50;;;14.00;99.90;;;;;;5077157;28;20461;-72
2022/10/26 00:48:43;;;;;;;0.70;0.50;;;14.00;99.90;;;;;;5077214;28;20474;-72
2022/10/26 00:51:18;;;;;;;0.70;0.40;;;14.00;99.90;;;;;;5076263;28;20545;-72
2022/10/26 00:53:45;;;;;;;1.33;0.50;;;14.00;99.90;;;;;;5077251;28;20533;-72
2022/10/26 00:56:12;;;;;;;0.80;0.53;;;14.10;99.90;;;;;;5076588;28;20813;-71
2022/10/26 00:58:39;;;;;;;1.47;0.50;;;14.10;99.90;;;;;;5078247;28;20486;-73
2022/10/26 01:01:08;;;;;;;2.20;0.50;;;14.00;99.90;;;;;;5077973;28;20477;-73
2022/10/26 01:03:36;;;;;;;0.73;0.40;;;14.10;99.90;;;;;;5077817;28;20578;-72
2022/10/26 01:06:05;;;;;;;0.90;0.57;;;14.00;99.90;;;;;;5075931;28;20489;-72
2022/10/26 01:08:32;;;;;;;0.70;0.50;;;14.00;99.90;;;;;;5078533;28;20450;-72
2022/10/26 01:11:00;;;;;;;0.90;0.60;;;14.00;99.90;;;;;;5076640;28;20508;-72
2022/10/26 01:13:29;;;;;;;2.07;0.50;;;14.00;99.90;;;;;;5078445;28;20521;-72
2022/10/26 01:16:03;;;;;;;0.83;0.47;;;14.00;99.90;;;;;;5076057;28;20482;-72
2022/10/26 01:18:40;;;;;;;0.60;0.40;;;14.00;99.90;;;;;;5076650;28;20515;-72
2022/10/26 01:21:40;;;;;;;0.83;0.40;;;14.00;99.90;;;;;;5077842;28;20809;-72
2022/10/26 01:24:31;;;;;;;0.70;0.50;;;14.00;99.90;;;;;;5071177;28;20581;-72
2022/10/26 01:27:06;;;;;;;0.70;0.40;;;14.00;99.90;;;;;;5074807;28;20470;-72
2022/10/26 01:30:01;;;;;;;0.97;0.40;;;14.00;99.90;;;;;;5077267;28;20629;-72
2022/10/26 01:32:32;;;;;;;1.90;0.60;;;14.00;99.90;;;;;;5076472;28;20825;-72
2022/10/26 01:35:07;;;;;;;1.67;0.50;;;14.00;99.90;;;;;;5077424;28;20574;-72
2022/10/26 01:37:39;;;;;;;0.67;0.40;;;14.00;99.90;;;;;;5077880;28;20485;-72
2022/10/26 01:40:12;;;;;;;0.93;0.50;;;14.00;99.90;;;;;;5077109;28;20510;-73
2022/10/26 01:42:44;;;;;;;0.80;0.40;;;14.00;99.90;;;;;;5076056;28;20538;-72
2022/10/26 01:45:13;;;;;;;0.63;0.40;;;14.00;99.90;;;;;;5076619;28;20517;-72
2022/10/26 01:47:41;;;;;;;0.70;0.40;;;14.00;99.90;;;;;;5076516;28;20928;-71
2022/10/26 01:50:10;;;;;;;0.70;0.43;;;14.10;99.90;;;;;;5076112;28;20547;-72
2022/10/26 01:52:37;;;;;;;1.40;0.50;;;14.20;99.90;;;;;;5077379;28;20533;-72
2022/10/26 01:55:27;;;;;;;1.30;0.50;;;14.30;99.90;;;;;;5076070;28;20541;-72
2022/10/26 01:58:05;;;;;;;1.63;0.50;;;14.30;99.90;;;;;;5076006;28;20804;-72
2022/10/26 02:00:37;;;;;;;0.70;0.50;;;14.30;99.90;;;;;;5074721;28;20916;-72
2022/10/26 02:03:15;;;;;;;0.80;0.50;;;14.20;99.90;;;;;;5077043;28;20493;-71
2022/10/26 02:05:52;;;;;;;0.80;0.50;;;14.10;99.90;;;;;;5076010;28;20554;-72
2022/10/26 02:08:31;;;;;;;0.63;0.47;;;14.00;99.90;;;;;;5076714;28;20442;-72
2022/10/26 02:11:10;;;;;;;1.00;0.60;;;13.80;99.90;;;;;;5075608;28;20501;-72
2022/10/26 02:13:46;;;;;;;1.30;0.50;;;13.70;99.90;;;;;;5077263;28;20534;-72
2022/10/26 02:16:21;;;;;;;0.70;0.50;;;13.50;99.90;;;;;;5076719;28;20549;-72
2022/10/26 02:18:55;;;;;;;4.60;0.60;;;13.40;99.90;;;;;;5076457;28;20544;-72
2022/10/26 02:21:26;;;;;;;0.80;0.43;;;13.40;99.90;;;;;;5076105;28;20493;-72
2022/10/26 02:23:57;;;;;;;0.93;0.60;;;13.40;99.90;;;;;;5076004;28;20865;-71
2022/10/26 02:26:27;;;;;;;1.13;0.60;;;13.40;99.90;;;;;;5075416;28;20500;-72
2022/10/26 02:29:00;;;;;;;0.90;0.50;;;13.40;99.90;;;;;;5075939;28;20483;-72
2022/10/26 02:31:28;;;;;;;1.23;0.43;;;13.50;99.90;;;;;;5074718;28;20549;-71
2022/10/26 02:34:01;;;;;;;0.80;0.50;;;13.50;99.90;;;;;;5076648;28;20561;-71
2022/10/26 02:36:30;;;;;;;0.60;0.40;;;13.50;99.90;;;;;;5075916;28;20565;-72
2022/10/26 02:38:59;;;;;;;2.03;0.50;;;13.60;99.90;;;;;;5076173;28;20446;-71
2022/10/26 02:41:28;;;;;;;1.00;0.60;;;13.60;99.90;;;;;;5074914;28;20541;-71
2022/10/26 02:44:02;;;;;;;0.80;0.40;;;13.60;99.90;;;;;;5076175;28;20581;-71
2022/10/26 02:46:29;;;;;;;0.73;0.43;;;13.80;99.90;;;;;;5075774;28;20989;-72
2022/10/26 02:48:58;;;;;;;0.87;0.50;;;13.90;99.90;;;;;;5075691;28;20925;-71
2022/10/26 02:51:33;;;;;;;0.80;0.50;;;14.00;99.90;;;;;;5075551;28;20549;-72
2022/10/26 02:54:10;;;;;;;0.70;0.40;;;14.00;99.90;;;;;;5075886;28;20450;-71
2022/10/26 02:56:44;;;;;;;2.80;0.50;;;14.10;99.90;;;;;;5075378;28;20775;-72
2022/10/26 02:59:13;;;;;;;0.70;0.40;;;14.20;99.90;;;;;;5075724;28;20431;-71
2022/10/26 03:01:41;;;;;;;0.60;0.40;;;14.20;99.90;;;;;;5076083;28;20759;-71
2022/10/26 03:04:09;;;;;;;1.53;0.40;;;14.20;99.90;;;;;;5074616;28;20576;-72
2022/10/26 03:06:36;;;;;;;0.80;0.40;;;14.20;99.90;;;;;;5075504;28;20489;-71
2022/10/26 03:09:03;;;;;;;0.80;0.50;;;14.20;99.90;;;;;;5073899;28;20748;-71
2022/10/26 03:11:30;;;;;;;1.77;0.40;;;14.20;99.90;;;;;;5075474;28;20466;-72
2022/10/26 03:13:57;;;;;;;0.53;0.30;;;14.20;99.90;;;;;;5075689;28;20954;-71
2022/10/26 03:16:24;;;;;;;0.80;0.40;;;14.20;99.90;;;;;;5075866;28;20481;-71
2022/10/26 03:18:51;;;;;;;3.27;0.50;;;14.20;99.90;;;;;;5074348;28;20450;-71
2022/10/26 03:21:19;;;;;;;0.87;0.40;;;14.10;99.90;;;;;;5075055;28;20529;-71
2022/10/26 03:23:46;;;;;;;0.83;0.47;;;14.10;99.90;;;;;;5074085;28;20897;-71
2022/10/26 03:26:13;;;;;;;0.83;0.50;;;14.10;99.90;;;;;;5076173;28;20739;-71
2022/10/26 03:28:40;;;;;;;0.50;0.40;;;14.10;99.90;;;;;;5076428;28;20537;-70
2022/10/26 03:31:07;;;;;;;1.27;0.50;;;14.10;99.90;;;;;;5075882;28;20507;-71
2022/10/26 03:33:34;;;;;;;0.97;0.50;;;14.10;99.90;;;;;;5075868;28;20581;-71
2022/10/26 03:36:01;;;;;;;0.90;0.50;;;14.10;99.90;;;;;;5075977;28;20819;-71
2022/10/26 03:38:29;;;;;;;0.90;0.47;;;14.00;99.90;;;;;;5075246;28;20541;-71
2022/10/26 03:40:56;;;;;;;0.70;0.40;;;14.00;99.90;;;;;;5076515;28;20957;-71
2022/10/26 03:43:23;;;;;;;0.70;0.40;;;14.10;99.90;;;;;;5077334;28;20457;-71
2022/10/26 03:45:50;;;;;;;0.63;0.40;;;14.10;99.90;;;;;;5079278;28;20590;-71
2022/10/26 03:48:17;;;;;;;1.10;0.40;;;14.10;99.90;;;;;;5079388;28;20820;-71
2022/10/26 03:50:44;;;;;;;0.63;0.30;;;14.20;99.90;;;;;;5078865;28;20925;-71
2022/10/26 03:53:11;;;;;;;0.80;0.47;;;14.10;99.90;;;;;;5078167;28;20810;-71
2022/10/26 03:55:39;;;;;;;0.93;0.50;;;14.10;99.90;;;;;;5079824;28;20503;-71
2022/10/26 03:58:06;;;;;;;3.80;0.70;;;14.10;99.90;;;;;;5079030;28;20533;-72
2022/10/26 04:00:33;;;;;;;5.47;0.40;;;14.10;99.90;;;;;;5077899;28;20529;-72
2022/10/26 04:03:00;;;;;;;0.63;0.40;;;14.20;99.90;;;;;;5076986;28;20549;-72
2022/10/26 04:05:28;;;;;;;0.63;0.40;;;14.20;99.90;;;;;;5077682;28;20577;-73
2022/10/26 04:07:57;;;;;;;0.80;0.40;;;14.30;99.90;;;;;;5077278;28;20461;-74
2022/10/26 04:10:24;;;;;;;0.60;0.40;;;14.30;99.90;;;;;;5078111;28;20500;-72
2022/10/26 04:12:53;;;;;;;1.00;0.40;;;14.40;99.90;;;;;;5077786;28;20462;-73
2022/10/26 04:15:21;;;;;;;0.60;0.43;;;14.50;99.90;;;;;;5077800;28;20442;-73
2022/10/26 04:17:48;;;;;;;1.37;0.40;;;14.50;99.90;;;;;;5079419;28;20541;-74
2022/10/26 04:20:15;;;;;;;1.00;0.50;;;14.50;99.90;;;;;;5078796;28;20541;-71
2022/10/26 04:22:42;;;;;;;0.80;0.43;;;14.60;99.90;;;;;;5078805;28;20508;-73
2022/10/26 04:25:11;;;;;;;1.00;0.50;;;14.70;99.90;;;;;;5079381;28;20573;-73
2022/10/26 04:27:38;;;;;;;0.97;0.40;;;14.60;99.90;;;;;;5077581;28;20859;-73
2022/10/26 04:30:08;;;;;;;0.70;0.40;;;14.70;99.90;;;;;;5077770;28;20926;-72
2022/10/26 04:32:35;;;;;;;1.33;0.47;;;14.70;99.90;;;;;;5077399;28;20549;-72
2022/10/26 04:35:02;;;;;;;0.60;0.50;;;14.70;99.90;;;;;;5077582;28;20573;-73
2022/10/26 04:37:29;;;;;;;0.80;0.40;;;14.70;99.90;;;;;;5077242;28;20814;-73
2022/10/26 04:39:56;;;;;;;0.80;0.40;;;14.60;99.90;;;;;;5075231;28;20945;-72
2022/10/26 04:42:23;;;;;;;1.13;0.40;;;14.60;99.90;;;;;;5075118;28;20675;-72
2022/10/26 04:44:50;;;;;;;1.30;0.40;;;14.60;99.90;;;;;;5076870;28;20580;-72
2022/10/26 04:47:18;;;;;;;1.07;0.60;;;14.60;99.90;;;;;;5076461;28;20904;-72
2022/10/26 04:49:45;;;;;;;0.70;0.47;;;14.60;99.90;;;;;;5076765;28;20805;-72
2022/10/26 04:52:12;;;;;;;1.43;0.73;;;14.60;99.90;;;;;;5076046;28;20470;-72
2022/10/26 04:54:39;;;;;;;0.70;0.40;;;14.50;99.90;;;;;;5077336;28;20453;-72
2022/10/26 04:57:05;;;;;;;2.97;0.50;;;14.40;99.90;;;;;;5076924;28;20447;-72
2022/10/26 04:59:32;;;;;;;0.70;0.50;;;14.50;99.90;;;;;;5075012;28;20757;-72
2022/10/26 05:01:59;;;;;;;1.00;0.50;;;14.50;99.90;;;;;;5076480;28;20493;-71
2022/10/26 05:04:28;;;;;;;2.50;0.50;;;14.40;99.90;;;;;;5076518;28;20597;-71
2022/10/26 05:06:55;;;;;;;0.80;0.50;;;14.50;99.90;;;;;;5075465;28;20442;-72
2022/10/26 05:09:22;;;;;;;0.50;0.40;;;14.50;99.90;;;;;;5075669;28;20533;-72
2022/10/26 05:11:49;;;;;;;0.77;0.50;;;14.50;99.90;;;;;;5076191;28;20506;-72
2022/10/26 05:14:15;;;;;;;0.70;0.50;;;14.50;99.90;;;;;;5075747;28;20785;-72
2022/10/26 05:16:43;;;;;;;0.70;0.50;;;14.60;99.90;;;;;;5076974;28;20966;-71
2022/10/26 05:19:10;;;;;;;1.30;0.50;;;14.60;99.90;;;;;;5076571;28;20454;-72
2022/10/26 05:21:38;;;;;;;0.60;0.50;;;14.60;99.90;;;;;;5075900;28;20458;-72
2022/10/26 05:24:06;;;;;;;0.77;0.50;;;14.60;99.90;;;;;;5073754;28;20454;-73
2022/10/26 05:26:33;;;;;;;1.13;0.47;;;14.60;99.90;;;;;;5074536;28;20620;-73
2022/10/26 05:29:00;;;;;;;1.03;0.43;;;14.60;99.90;;;;;;5072893;28;20497;-73
2022/10/26 05:31:27;;;;;;;0.87;0.50;;;14.50;99.90;;;;;;5070679;28;20544;-73
2022/10/26 05:33:54;;;;;;;0.80;0.40;;;14.60;99.90;;;;;;5072836;28;20576;-72
2022/10/26 05:36:21;;;;;;;0.70;0.40;;;14.60;99.90;;;;;;5075492;28;20541;-72
2022/10/26 05:38:49;;;;;;;1.10;0.40;;;14.60;99.90;;;;;;5075554;28;20633;-73
2022/10/26 05:41:16;;;;;;;2.00;0.53;;;14.60;99.90;;;;;;5075761;28;20498;-73
2022/10/26 05:43:43;;;;;;;0.90;0.43;;;14.50;99.90;;;;;;5075644;28;20513;-72
2022/10/26 05:46:09;;;;;;;0.90;0.47;;;14.60;99.90;;;;;;5072708;28;20972;-73
2022/10/26 05:48:36;;;;;;;1.60;0.43;;;14.70;99.90;;;;;;5075702;28;20512;-73
2022/10/26 05:51:03;;;;;;;0.63;0.40;;;14.70;99.90;;;;;;5072581;28;20493;-73
2022/10/26 05:53:30;;;;;;;1.50;0.40;;;14.70;99.90;;;;;;5074606;28;20752;-73
2022/10/26 05:55:59;;;;;;;1.80;0.40;;;14.70;99.90;;;;;;5073708;28;20541;-73
2022/10/26 05:58:27;;;;;;;0.87;0.40;;;14.80;99.90;;;;;;5075270;28;20552;-73
2022/10/26 06:01:11;;;;;;;2.30;0.43;;;14.80;99.90;;;;;;5075356;28;20557;-73
2022/10/26 06:03:54;;;;;;;0.73;0.40;;;14.90;99.90;;;;;;5074063;28;20478;-73
2022/10/26 06:06:22;;;;;;;1.50;0.50;;;14.90;99.90;;;;;;5073812;28;20478;-73
2022/10/26 06:08:50;;;;;;;0.60;0.40;;;14.90;99.90;;;;;;5075432;28;20478;-73
2022/10/26 06:11:19;;;;;;;2.17;0.40;;;15.00;99.90;;;;;;5073662;28;20965;-72
2022/10/26 06:13:46;;;;;;;1.00;0.50;;;15.00;99.90;;;;;;5074074;28;20522;-72
2022/10/26 06:16:27;;;;;;;0.60;0.30;;;15.00;99.90;;;;;;5076395;28;20493;-72
2022/10/26 06:19:02;;;;;;;1.03;0.40;;;15.10;99.90;;;;;;5074670;28;20838;-72
2022/10/26 06:21:41;;;;;;;0.80;0.40;;;15.10;99.90;;;;;;5073179;28;20568;-72
2022/10/26 06:24:12;;;;;;;0.50;0.40;;;15.00;99.90;;;;;;5074901;28;20520;-72
2022/10/26 06:26:46;;;;;;;2.97;0.50;;;15.10;99.90;;;;;;5074203;28;20478;-72
2022/10/26 06:29:24;;;;;;;0.70;0.40;;;15.10;99.90;;;;;;5073740;28;20559;-72
2022/10/26 06:31:51;;;;;;;0.60;0.40;;;15.00;99.90;;;;;;5074122;28;20540;-72
2022/10/26 06:34:25;;;;;;;1.40;0.40;;;15.10;99.90;;;;;;5074276;28;20517;-72
2022/10/26 06:36:52;;;;;;;0.70;0.40;;;15.20;99.90;;;;;;5070249;28;20548;-73
2022/10/26 06:39:20;;;;;;;1.20;0.40;;;15.20;99.90;;;;;;5075568;28;20446;-72
2022/10/26 06:41:51;;;;;;;1.10;0.40;;;15.20;99.90;;;;;;5075042;28;20834;-72
2022/10/26 06:44:23;;;;;;;0.80;0.50;;;15.20;99.90;;;;;;5073317;28;20985;-71
2022/10/26 06:46:59;;;;;;;0.70;0.50;;;15.40;99.90;;;;;;5073001;28;20588;-72
2022/10/26 06:49:31;;;;;;;0.50;0.40;;;15.40;99.90;;;;;;5075584;28;21899;-71
2022/10/26 06:52:00;;;;;;;0.60;0.40;;;15.30;99.90;;;;;;5075186;28;20446;-74
2022/10/26 06:54:41;;;;;;;1.77;0.50;;;15.30;99.90;;;;;;5069430;28;20864;-74
2022/10/26 06:57:12;;;;;;;1.03;0.30;;;15.30;99.90;;;;;;5073669;28;20490;-73
2022/10/26 06:59:45;;;;;;;0.87;0.40;;;15.40;99.90;;;;;;5075043;28;20481;-71
2022/10/26 07:02:13;;;;;;;0.83;0.43;;;15.40;99.90;;;;;;5073592;28;20490;-71
2022/10/26 07:04:40;;;;;;;0.53;0.40;;;15.40;99.90;;;;;;5071041;28;20462;-71
2022/10/26 07:07:08;;;;;;;1.00;0.40;;;15.40;99.90;;;;;;5071350;28;20641;-72
2022/10/26 07:09:35;;;;;;;1.03;0.40;;;15.30;99.90;;;;;;5068264;28;20528;-72
2022/10/26 07:12:02;;;;;;;0.67;0.33;;;15.30;99.90;;;;;;5069980;28;20434;-72
2022/10/26 07:14:30;;;;;;;0.50;0.40;;;15.40;99.90;;;;;;5070979;28;20515;-71
2022/10/26 07:16:57;;;;;;;1.57;0.40;;;15.40;99.90;;;;;;5074591;28;20434;-73
2022/10/26 07:19:24;;;;;;;0.60;0.40;;;15.50;99.90;;;;;;5073763;28;20549;-71
2022/10/26 07:21:51;;;;;;;0.70;0.40;;;15.50;99.90;;;;;;5072582;28;20447;-72
2022/10/26 07:24:18;;;;;;;0.90;0.50;;;15.50;99.90;;;;;;5072971;28;20755;-72
2022/10/26 07:26:45;;;;;;;1.10;0.60;;;15.60;99.90;;;;;;5073808;28;20481;-72
2022/10/26 07:29:12;;;;;;;0.80;0.47;;;15.60;99.90;;;;;;5072984;28;20462;-72
2022/10/26 07:31:41;;;;;;;0.77;0.40;;;15.70;99.90;;;;;;5076500;28;20454;-72
2022/10/26 07:34:07;;;;;;;1.00;0.40;;;15.70;99.90;;;;;;5078437;28;20980;-72
2022/10/26 07:36:35;;;;;;;0.60;0.40;;;15.70;99.90;;;;;;5080039;28;20462;-73
2022/10/26 07:39:02;;;;;;;0.77;0.40;;;15.80;99.90;;;;;;5078000;28;20524;-72
2022/10/26 07:41:29;;;;;;;0.87;0.50;;;15.80;99.90;;;;;;5075363;28;20560;-72
2022/10/26 07:43:56;;;;;;;1.63;0.50;;;15.80;99.90;;;;;;5077468;28;20953;-72
2022/10/26 07:46:23;;;;;;;1.03;0.40;;;15.90;99.90;;;;;;5076745;28;20552;-72
2022/10/26 07:48:52;;;;;;;0.60;0.50;;;15.90;99.90;;;;;;5075029;28;20631;-72
2022/10/26 07:51:19;;;;;;;1.40;0.40;;;16.00;99.90;;;;;;5075730;28;20582;-73
2022/10/26 07:53:46;;;;;;;0.70;0.50;;;16.10;99.90;;;;;;5077523;28;21053;-72
2022/10/26 07:56:13;;;;;;;0.63;0.40;;;16.10;99.90;;;;;;5075881;28;20553;-72
2022/10/26 07:58:41;;;;;;;0.87;0.50;;;16.10;99.90;;;;;;5076908;28;20494;-72
2022/10/26 08:01:10;;;;;;;2.67;0.50;;;16.10;99.90;;;;;;5075507;28;20456;-72
2022/10/26 08:03:37;;;;;;;0.70;0.40;;;16.10;99.90;;;;;;5075691;28;21053;-73
2022/10/26 08:06:06;;;;;;;2.37;0.47;;;16.20;99.90;;;;;;5076666;28;20580;-72
2022/10/26 08:08:33;;;;;;;5.57;0.60;;;16.20;99.90;;;;;;5078720;28;20519;-72
2022/10/26 08:11:00;;;;;;;0.60;0.40;;;16.20;99.90;;;;;;5074874;28;20550;-71
2022/10/26 08:13:27;;;;;;;0.70;0.40;;;16.20;99.90;;;;;;5057545;28;20479;-73
2022/10/26 08:15:57;;;;;;;0.90;0.40;;;16.30;99.50;;;;;;5062143;28;20509;-72
2022/10/26 08:18:24;;;;;;;1.13;0.40;;;16.30;97.20;;;;;;5077072;28;20447;-72
2022/10/26 08:20:51;;;;;;;0.60;0.40;;;16.30;94.50;;;;;;5075595;28;20949;-73
2022/10/26 08:23:19;;;;;;;1.70;0.53;;;16.40;99.90;;;;;;5056536;28;20443;-73
2022/10/26 08:25:46;;;;;;;0.90;0.40;;;16.40;99.90;;;;;;5063889;28;20482;-72
2022/10/26 08:28:13;;;;;;;0.70;0.50;;;16.40;99.90;;;;;;5076377;28;20462;-72
2022/10/26 08:30:40;;;;;;;0.60;0.40;;;16.50;98.80;;;;;;5076449;28;20494;-73
2022/10/26 08:33:08;;;;;;;1.57;0.50;;;16.50;99.80;;;;;;5076579;28;20928;-73
2022/10/26 08:35:35;;;;;;;3.23;0.50;;;16.60;99.70;;;;;;5056578;28;20965;-72
2022/10/26 08:38:02;;;;;;;0.70;0.40;;;16.60;97.60;;;;;;5074458;28;20821;-72
2022/10/26 08:40:33;;;;;;;1.23;0.50;;;16.50;98.90;;;;;;5073571;28;20553;-73
2022/10/26 08:43:04;;;;;;;1.27;0.47;;;16.60;99.90;;;;;;5076695;28;20470;-72
2022/10/26 08:45:37;;;;;;;1.00;0.50;;;16.50;95.10;;;;;;5074651;28;20568;-72
2022/10/26 08:48:07;;;;;;;1.37;0.50;;;16.50;99.90;;;;;;5076721;28;20434;-72
2022/10/26 08:50:39;;;;;;;2.07;0.60;;;16.60;99.90;;;;;;5074487;28;20466;-71
2022/10/26 08:53:14;;;;;;;0.90;0.50;;;16.70;99.90;;;;;;5077208;28;20486;-72
2022/10/26 08:55:47;;;;;;;1.20;0.43;;;16.80;94.10;;;;;;5076933;28;20498;-73
2022/10/26 08:58:17;;;;;;;2.20;0.50;;;16.80;95.70;;;;;;5075101;28;20438;-72
2022/10/26 09:00:47;;;;;;;4.23;0.70;;;16.80;94.10;;;;;;5072928;28;20557;-73
2022/10/26 09:03:14;;;;;;;1.40;0.60;;;16.90;86.90;;;;;;5074983;28;20490;-73
2022/10/26 09:05:52;;;;;;;0.70;0.40;;;17.00;86.70;;;;;;5068750;28;20464;-72
2022/10/26 09:08:29;;;;;;;1.00;0.50;;;17.00;81.60;;;;;;5074555;28;20545;-74
2022/10/26 09:11:05;;;;;;;1.13;0.60;;;17.10;66.90;;;;;;5074176;28;20553;-73
2022/10/26 09:13:42;;;;;;;0.70;0.50;;;17.30;65.40;;;;;;5074830;28;20549;-73
2022/10/26 09:16:20;;;;;;;2.00;0.50;;;17.30;38.50;;;;;;5073903;28;21062;-73
2022/10/26 09:19:00;;;;;;;2.33;0.60;;;17.40;56.40;;;;;;5072395;28;20561;-73
2022/10/26 09:21:37;;;;;;;1.00;0.50;;;17.50;41.40;;;;;;5072544;28;20472;-72
2022/10/26 09:24:12;;;;;;;1.50;0.50;;;17.50;19.60;;;;;;5071812;28;20548;-73
2022/10/26 09:26:52;;;;;;;0.67;0.40;;;17.50;26.90;;;;;;5074906;28;20830;-73
2022/10/26 09:29:22;;;;;;;1.70;0.50;;;17.50;46.20;;;;;;5072855;28;20541;-73
2022/10/26 09:31:50;;;;;;;1.83;0.40;;;17.50;40.90;;;;;;5070034;28;20547;-72
2022/10/26 09:34:26;;;;;;;2.60;0.70;;;17.60;45.60;;;;;;5070978;28;20566;-72
2022/10/26 09:36:55;;;;;;;0.80;0.47;;;17.70;41.10;;;;;;5071452;28;20478;-72
2022/10/26 09:39:31;;;;;;;1.40;0.50;;;17.80;24.10;;;;;;5068936;28;20634;-72
2022/10/26 09:42:04;;;;;;;1.13;0.50;;;17.80;18.60;;;;;;5070557;28;20847;-74
2022/10/26 09:44:36;;;;;;;4.77;0.77;;;17.70;30.60;;;;;;5073315;28;20541;-74
2022/10/26 09:47:10;;;;;;;1.53;0.50;;;17.70;29.40;;;;;;5069926;28;20486;-74
2022/10/26 09:49:44;;;;;;;1.73;0.50;;;17.70;35.90;;;;;;5075217;28;20531;-73
2022/10/26 09:52:11;;;;;;;1.87;0.40;;;17.90;36.30;;;;;;5075602;28;20494;-74
2022/10/26 09:54:38;;;;;;;0.80;0.50;;;18.10;16.30;;;;;;5073156;28;20608;-74
2022/10/26 09:57:08;;;;;;;0.87;0.40;;;18.30;1.00;;;;;;5070744;28;20490;-73
2022/10/26 09:59:40;;;;;;;1.43;0.40;;;18.50;1.00;;;;;;5070158;28;21017;-74
2022/10/26 10:02:32;;;;;;;2.17;0.80;;;18.80;1.00;;;;;;5072539;28;20964;-76
2022/10/26 10:05:00;;;;;;;4.50;0.43;;;19.10;1.00;;;;;;5073133;28;20480;-73
2022/10/26 10:07:27;;;;;;;4.83;0.40;;;19.20;1.00;;;;;;5073773;28;20893;-72
2022/10/26 10:10:08;;;;;;;1.40;0.40;;;19.20;1.00;;;;;;5068771;28;20532;-73
2022/10/26 10:12:36;;;;;;;0.83;0.40;;;19.20;1.00;;;;;;5072419;28;20459;-73
2022/10/26 10:15:04;;;;;;;1.97;0.50;;;19.30;1.00;;;;;;5064415;28;20463;-73
2022/10/26 10:17:31;;;;;;;0.83;0.50;;;19.30;1.00;;;;;;5053415;28;20502;-73
2022/10/26 10:20:11;;;;;;;0.63;0.40;;;19.30;1.00;;;;;;5070980;28;20482;-73
2022/10/26 10:22:53;;;;;;;1.20;0.50;;;19.30;1.00;;;;;;5066559;28;21057;-73
2022/10/26 10:25:25;;;;;;;0.83;0.50;;;19.30;1.00;;;;;;5051128;28;20475;-73
2022/10/26 10:27:54;;;;;;;1.23;0.40;;;19.20;1.00;;;;;;5065231;28;20540;-71
2022/10/26 10:30:23;;;;;;;1.20;0.50;;;19.30;1.00;;;;;;5074524;28;20533;-72
2022/10/26 10:33:05;;;;;;;1.27;0.53;;;19.50;1.00;;;;;;5070701;28;20513;-72
2022/10/26 10:35:32;;;;;;;1.60;0.50;;;19.80;1.00;;;;;;5070639;28;20482;-73
2022/10/26 10:37:59;;;;;;;3.57;0.50;;;20.00;1.00;;;;;;5071172;28;20561;-73
2022/10/26 10:40:30;;;;;;;1.23;0.40;;;20.00;1.00;;;;;;5073967;28;20910;-73
2022/10/26 10:43:06;;;;;;;2.50;0.50;;;20.10;1.00;;;;;;5071611;28;20462;-73
2022/10/26 10:45:34;;;;;;;1.73;0.60;;;20.10;1.00;;;;;;5073986;28;20493;-73
2022/10/26 10:48:04;;;;;;;2.90;0.50;;;20.10;1.00;;;;;;5070710;28;20529;-73
2022/10/26 10:50:33;;;;;;;2.50;0.50;;;20.10;1.00;;;;;;5074170;28;20537;-73
2022/10/26 10:53:20;;;;;;;1.00;0.40;;;20.10;1.00;;;;;;5068586;28;20565;-74
2022/10/26 10:56:01;;;;;;;1.27;0.40;;;20.10;1.00;;;;;;5059349;28;20459;-74
2022/10/26 10:58:37;;;;;;;2.97;0.50;;;20.20;1.00;;;;;;5058613;28;20490;-73
2022/10/26 11:01:09;;;;;;;1.00;0.50;;;20.20;1.00;;;;;;5074017;28;20437;-73
2022/10/26 11:03:55;;;;;;;0.90;0.43;;;20.30;1.00;;;;;;5069765;28;20546;-74
2022/10/26 11:06:26;;;;;;;1.70;0.40;;;20.60;1.00;;;;;;5067623;28;20438;-74
2022/10/26 11:08:57;;;;;;;1.00;0.50;;;20.90;1.00;;;;;;5069148;28;20461;-73
2022/10/26 11:11:28;;;;;;;1.43;0.50;;;21.00;99.90;;;;;;5067974;28;20951;-74
2022/10/26 11:14:01;;;;;;;1.70;0.40;;;20.90;99.90;;;;;;5070951;28;20549;-73
2022/10/26 11:16:31;;;;;;;0.67;0.50;;;20.70;59.50;;;;;;5072636;28;20564;-73
2022/10/26 11:19:04;;;;;;;0.70;0.40;;;20.70;1.00;;;;;;5072797;28;20988;-74
2022/10/26 11:21:35;;;;;;;0.70;0.40;;;20.60;1.00;;;;;;5070272;28;20458;-73
2022/10/26 11:24:12;;;;;;;1.80;0.40;;;20.60;99.90;;;;;;5070529;28;20776;-74
2022/10/26 11:26:44;;;;;;;2.70;0.40;;;20.60;1.00;;;;;;5070440;28;20481;-74
2022/10/26 11:29:25;;;;;;;1.77;0.40;;;20.70;99.90;;;;;;5070486;28;20970;-74
2022/10/26 11:31:57;;;;;;;0.90;0.40;;;20.80;99.90;;;;;;5069627;28;20564;-74
2022/10/26 11:34:30;;;;;;;0.70;0.40;;;20.90;1.00;;;;;;5072203;28;20477;-74
2022/10/26 11:37:05;;;;;;;1.67;0.40;;;20.90;99.90;;;;;;5071247;28;20607;-74
2022/10/26 11:39:41;;;;;;;0.63;0.40;;;20.90;99.90;;;;;;5072742;28;20517;-73
2022/10/26 11:42:20;;;;;;;1.00;0.50;;;21.00;99.90;;;;;;5066280;28;20495;-74
2022/10/26 11:44:52;;;;;;;4.47;0.50;;;21.20;99.90;;;;;;5068696;28;20493;-73
2022/10/26 11:47:25;;;;;;;0.70;0.40;;;21.20;99.90;;;;;;5066727;28;20541;-75
2022/10/26 11:50:01;;;;;;;1.13;0.50;;;21.40;1.00;;;;;;5070081;28;20452;-75
2022/10/26 11:52:35;;;;;;;3.13;0.50;;;21.50;99.90;;;;;;5071133;28;20893;-74
2022/10/26 11:55:03;;;;;;;0.87;0.30;;;21.60;1.00;;;;;;5071228;28;20475;-74
2022/10/26 11:57:34;;;;;;;1.00;0.50;;;21.40;1.00;;;;;;5061808;28;21022;-74
2022/10/26 12:00:06;;;;;;;1.03;0.50;;;21.40;99.90;;;;;;5070399;28;20470;-74
2022/10/26 12:02:38;;;;;;;0.67;0.40;;;21.50;99.90;;;;;;5063629;28;20830;-74
2022/10/26 12:05:11;;;;;;;2.20;0.37;;;21.60;99.90;;;;;;5073803;28;20534;-75
2022/10/26 12:07:40;;;;;;;0.70;0.30;;;21.50;1.00;;;;;;5074834;28;20957;-74
2022/10/26 12:10:14;;;;;;;2.10;0.50;;;21.40;99.90;;;;;;5075097;28;20493;-75
2022/10/26 12:12:46;;;;;;;0.93;0.40;;;21.40;1.00;;;;;;5077890;28;20545;-74
2022/10/26 12:15:24;;;;;;;1.23;0.30;;;21.40;1.00;;;;;;5073175;28;20463;-74
2022/10/26 12:17:59;;;;;;;1.20;0.47;;;21.60;13.50;;;;;;5050209;28;20473;-75
2022/10/26 12:21:02;;;;;;;0.60;0.30;;;21.60;42.40;;;;;;5075345;28;20477;-74
2022/10/26 12:23:31;;;;;;;6.10;0.50;;;21.50;99.90;;;;;;5070726;28;20552;-75
2022/10/26 12:26:32;;;;;;;4.97;0.57;;;21.50;99.90;;;;;;5073020;28;20478;-73
2022/10/26 12:29:39;;;;;;;23.10;1.50;;;21.50;99.90;;;;;;5069768;28;20942;-73
2022/10/26 12:32:46;;;;;;;3.70;0.50;;;21.40;1.00;;;;;;4996592;28;20470;-73
2022/10/26 12:35:46;;;;;;;1.10;0.40;;;21.40;1.00;;;;;;5067921;28;20948;-75
2022/10/26 12:38:47;;;;;;;0.60;0.40;;;21.40;99.90;;;;;;5070692;28;20449;-73
2022/10/26 12:41:24;;;;;;;0.97;0.40;;;21.30;1.00;;;;;;5068933;28;20473;-73
2022/10/26 12:43:56;;;;;;;1.20;0.40;;;21.30;1.00;;;;;;5076120;28;20478;-74
2022/10/26 12:46:42;;;;;;;2.80;0.40;;;21.30;1.00;;;;;;5071522;28;20525;-73
2022/10/26 12:50:02;;;;;;;1.30;0.50;;;21.40;1.00;;;;;;5076380;28;20442;-74
2022/10/26 12:52:43;;;;;;;1.60;0.43;;;21.40;1.00;;;;;;5075748;28;20439;-74
2022/10/26 12:55:52;;;;;;;0.80;0.30;;;21.40;1.00;;;;;;5074863;28;20513;-73
2022/10/26 12:58:32;;;;;;;0.63;0.33;;;21.50;1.00;;;;;;5073726;28;20438;-73
2022/10/26 13:01:37;;;;;;;0.60;0.40;;;21.50;1.00;;;;;;5074059;28;20438;-73
2022/10/26 13:04:19;;;;;;;1.50;0.50;;;21.50;1.00;;;;;;5074376;28;20598;-73
2022/10/26 13:07:08;;;;;;;0.80;0.40;;;21.40;1.00;;;;;;5074281;28;20533;-73
2022/10/26 13:09:37;;;;;;;0.77;0.30;;;21.40;99.90;;;;;;5067555;28;20545;-72
2022/10/26 13:12:05;;;;;;;1.53;0.60;;;21.40;1.00;;;;;;5071337;28;20496;-72